Time;durP1;ratioP1;P1;durP2;ratioP2;P2;SDS_P1;SDS_P2;PMS_P1;PMS_P2;Temp;Humidity;BMP_temperature;BMP_pressure;BME280_temperature;BME280_humidity;BME280_pressure;Samples;Min_cycle;Max_cycle;Signal;HPM_P1;HPM_P2
2022/12/12 00:01:32;;;;;;;0.70;0.40;;;15.20;71.50;;;;;;4993681;28;20118;-75
2022/12/12 00:03:58;;;;;;;1.00;0.45;;;15.20;71.50;;;;;;4969145;28;20484;-75
2022/12/12 00:06:24;;;;;;;0.70;0.52;;;15.20;71.60;;;;;;4993625;28;20113;-75
2022/12/12 00:08:50;;;;;;;0.52;0.47;;;15.20;71.60;;;;;;4977162;28;20129;-75
2022/12/12 00:11:15;;;;;;;1.45;0.40;;;15.20;71.60;;;;;;4980038;28;20022;-75
2022/12/12 00:13:41;;;;;;;0.98;0.50;;;15.20;71.70;;;;;;4980173;28;20373;-75
2022/12/12 00:16:07;;;;;;;0.50;0.50;;;15.20;71.70;;;;;;4997498;28;20031;-75
2022/12/12 00:18:35;;;;;;;0.30;0.30;;;15.20;71.80;;;;;;4980347;28;20021;-75
2022/12/12 00:21:01;;;;;;;1.75;0.50;;;15.10;71.80;;;;;;4980410;28;20080;-76
2022/12/12 00:23:27;;;;;;;0.43;0.43;;;15.20;71.80;;;;;;4976601;28;20023;-75
2022/12/12 00:25:57;;;;;;;0.30;0.30;;;15.10;71.80;;;;;;4976459;28;20097;-75
2022/12/12 00:28:22;;;;;;;0.73;0.60;;;15.10;71.80;;;;;;4977852;28;20023;-75
2022/12/12 00:30:48;;;;;;;2.28;0.50;;;15.20;71.90;;;;;;4976539;28;20382;-75
2022/12/12 00:33:14;;;;;;;0.52;0.52;;;15.10;71.90;;;;;;4977832;28;20027;-75
2022/12/12 00:35:39;;;;;;;0.50;0.50;;;15.10;72.00;;;;;;4977622;28;20481;-75
2022/12/12 00:38:05;;;;;;;1.35;0.45;;;15.10;73.00;;;;;;4977598;28;20446;-75
2022/12/12 00:40:31;;;;;;;0.30;0.30;;;15.10;71.90;;;;;;4977599;28;20469;-75
2022/12/12 00:42:56;;;;;;;0.30;0.30;;;15.10;71.90;;;;;;4977455;28;20050;-75
2022/12/12 00:45:22;;;;;;;0.73;0.45;;;15.10;71.90;;;;;;4977769;28;20055;-75
2022/12/12 00:47:48;;;;;;;1.08;0.32;;;15.10;71.90;;;;;;4976088;28;20023;-75
2022/12/12 00:50:13;;;;;;;1.05;0.40;;;15.10;72.00;;;;;;4977391;28;20092;-75
2022/12/12 00:52:39;;;;;;;0.32;0.32;;;15.10;72.00;;;;;;4959899;28;20035;-75
2022/12/12 00:55:05;;;;;;;0.55;0.40;;;15.10;72.00;;;;;;4977019;28;20042;-75
2022/12/12 00:57:31;;;;;;;1.17;0.57;;;15.10;72.00;;;;;;4977279;28;20023;-75
2022/12/12 00:59:57;;;;;;;0.52;0.52;;;15.10;72.00;;;;;;4977227;28;20110;-75
2022/12/12 01:02:22;;;;;;;0.38;0.30;;;15.10;72.10;;;;;;4977109;28;20105;-75
2022/12/12 01:04:48;;;;;;;0.98;0.55;;;15.10;72.00;;;;;;4977148;28;20026;-75
2022/12/12 01:07:14;;;;;;;0.40;0.40;;;15.10;72.00;;;;;;4978991;28;20038;-75
2022/12/12 01:09:39;;;;;;;0.57;0.30;;;15.10;72.00;;;;;;4978706;28;20030;-75
2022/12/12 01:12:05;;;;;;;0.50;0.50;;;15.10;72.00;;;;;;4996709;28;20030;-75
2022/12/12 01:14:31;;;;;;;0.30;0.30;;;15.10;72.00;;;;;;4996552;28;20026;-75
2022/12/12 01:16:56;;;;;;;0.35;0.35;;;15.10;72.00;;;;;;4996357;28;20026;-75
2022/12/12 01:19:22;;;;;;;0.38;0.38;;;15.10;72.00;;;;;;4996326;28;20042;-75
2022/12/12 01:21:48;;;;;;;0.40;0.40;;;15.00;71.90;;;;;;4978173;28;20018;-75
2022/12/12 01:24:13;;;;;;;0.52;0.52;;;15.00;71.90;;;;;;4996112;28;20040;-75
2022/12/12 01:26:39;;;;;;;0.40;0.40;;;15.10;72.00;;;;;;4978835;28;20097;-75
2022/12/12 01:29:05;;;;;;;0.50;0.50;;;15.10;72.10;;;;;;4996491;28;20034;-76
2022/12/12 01:31:30;;;;;;;0.40;0.40;;;15.10;72.00;;;;;;4978934;28;20080;-75
2022/12/12 01:33:56;;;;;;;0.47;0.47;;;15.10;72.00;;;;;;4995742;28;20061;-75
2022/12/12 01:36:22;;;;;;;0.40;0.38;;;15.10;72.10;;;;;;4978962;28;20053;-75
2022/12/12 01:38:49;;;;;;;0.82;0.50;;;15.00;72.00;;;;;;4978570;28;20026;-75
2022/12/12 01:41:15;;;;;;;0.40;0.40;;;15.10;72.10;;;;;;4978716;28;20026;-75
2022/12/12 01:43:41;;;;;;;1.52;0.38;;;15.00;72.10;;;;;;4978428;28;20037;-75
2022/12/12 01:46:29;;;;;;;0.50;0.50;;;15.00;72.10;;;;;;4995848;28;20022;-75
2022/12/12 01:49:10;;;;;;;0.20;0.20;;;15.00;72.00;;;;;;4995902;28;20480;-75
2022/12/12 01:51:35;;;;;;;0.82;0.43;;;15.00;72.10;;;;;;4995688;28;20026;-75
2022/12/12 01:54:07;;;;;;;0.38;0.38;;;15.00;72.20;;;;;;4978411;28;20041;-75
2022/12/12 01:56:32;;;;;;;0.40;0.38;;;15.00;72.10;;;;;;4978907;28;20042;-75
2022/12/12 01:58:58;;;;;;;0.40;0.40;;;15.00;72.20;;;;;;4978233;28;20550;-75
2022/12/12 02:01:24;;;;;;;0.22;0.22;;;15.00;72.20;;;;;;4978318;28;20392;-75
2022/12/12 02:03:49;;;;;;;0.63;0.43;;;15.00;72.30;;;;;;4978162;28;20481;-75
2022/12/12 02:06:18;;;;;;;0.22;0.22;;;15.00;72.30;;;;;;4995221;28;20053;-75
2022/12/12 02:08:45;;;;;;;2.45;0.30;;;15.00;72.20;;;;;;4978273;28;20069;-75
2022/12/12 02:11:11;;;;;;;0.40;0.30;;;15.00;72.30;;;;;;4962506;28;20030;-75
2022/12/12 02:13:36;;;;;;;0.43;0.43;;;15.00;72.30;;;;;;4977949;28;20030;-75
2022/12/12 02:16:13;;;;;;;0.30;0.30;;;15.00;72.30;;;;;;4995203;28;20022;-75
2022/12/12 02:19:04;;;;;;;0.40;0.40;;;15.00;72.30;;;;;;4978771;28;20374;-75
2022/12/12 02:21:37;;;;;;;2.03;0.57;;;15.00;72.40;;;;;;4995124;28;20031;-75
2022/12/12 02:24:30;;;;;;;0.28;0.28;;;15.00;72.40;;;;;;4977892;28;20453;-75
2022/12/12 02:27:26;;;;;;;0.30;0.30;;;15.00;72.40;;;;;;4995164;28;20031;-75
2022/12/12 02:30:01;;;;;;;0.30;0.30;;;15.00;72.50;;;;;;4977818;28;20477;-69
2022/12/12 02:32:45;;;;;;;0.30;0.30;;;15.00;72.40;;;;;;4995111;28;20035;-69
2022/12/12 02:35:29;;;;;;;0.75;0.38;;;15.00;72.50;;;;;;4994853;28;20023;-75
2022/12/12 02:38:01;;;;;;;0.30;0.30;;;15.00;72.50;;;;;;4977507;28;20054;-75
2022/12/12 02:40:36;;;;;;;0.30;0.30;;;15.00;72.50;;;;;;4977601;28;20564;-75
2022/12/12 02:43:10;;;;;;;0.45;0.45;;;15.00;72.60;;;;;;4995001;28;20026;-75
2022/12/12 02:46:10;;;;;;;0.38;0.38;;;15.00;72.50;;;;;;4977480;28;20022;-75
2022/12/12 02:48:52;;;;;;;0.30;0.30;;;15.00;72.50;;;;;;4972773;28;20045;-75
2022/12/12 02:51:18;;;;;;;0.80;0.50;;;15.00;72.50;;;;;;4977178;28;20031;-75
2022/12/12 02:53:43;;;;;;;0.20;0.20;;;14.90;72.50;;;;;;4977297;28;20358;-75
2022/12/12 02:56:43;;;;;;;0.50;0.40;;;15.00;72.50;;;;;;4994677;28;20481;-75
2022/12/12 02:59:11;;;;;;;0.30;0.30;;;15.00;72.60;;;;;;4994796;28;20023;-75
2022/12/12 03:01:49;;;;;;;0.40;0.40;;;15.00;72.50;;;;;;4977006;28;20033;-75
2022/12/12 03:10:13;;;;;;;0.40;0.40;;;15.00;72.60;;;;;;4975268;28;20077;-75
2022/12/12 03:13:02;;;;;;;0.30;0.30;;;15.00;72.60;;;;;;4973994;28;20031;-75
2022/12/12 03:15:40;;;;;;;0.40;0.40;;;14.90;72.50;;;;;;4973349;28;20501;-75
2022/12/12 03:18:19;;;;;;;0.30;0.30;;;15.00;72.60;;;;;;4974595;28;20064;-75
2022/12/12 03:20:57;;;;;;;0.30;0.30;;;15.00;72.60;;;;;;4973463;28;20019;-75
2022/12/12 03:23:28;;;;;;;1.05;0.35;;;15.00;72.60;;;;;;4985131;28;20019;-75
2022/12/12 03:26:00;;;;;;;0.45;0.40;;;14.90;72.50;;;;;;4976677;28;20117;-75
2022/12/12 03:28:31;;;;;;;0.60;0.40;;;15.00;72.60;;;;;;4976938;28;20377;-75
2022/12/12 03:30:57;;;;;;;0.30;0.30;;;14.90;72.60;;;;;;4976989;28;20058;-75
2022/12/12 03:33:45;;;;;;;0.40;0.40;;;14.90;72.60;;;;;;4993896;28;20057;-69
2022/12/12 03:36:15;;;;;;;0.20;0.20;;;14.90;72.60;;;;;;4976490;28;20027;-69
2022/12/12 03:38:42;;;;;;;1.05;0.30;;;14.90;72.60;;;;;;4976479;28;20030;-70
2022/12/12 03:41:13;;;;;;;0.30;0.30;;;14.90;72.60;;;;;;4976757;28;20029;-70
2022/12/12 03:44:06;;;;;;;0.88;0.40;;;15.00;72.60;;;;;;4975986;28;20670;-70
2022/12/12 03:46:36;;;;;;;0.32;0.32;;;14.90;72.60;;;;;;4976396;28;20568;-69
2022/12/12 03:49:11;;;;;;;0.20;0.20;;;14.90;72.60;;;;;;4976088;28;20141;-69
2022/12/12 03:51:39;;;;;;;0.22;0.22;;;14.90;72.70;;;;;;4976424;28;20065;-70
2022/12/12 03:54:31;;;;;;;0.50;0.50;;;14.90;72.70;;;;;;4976328;28;20529;-69
2022/12/12 03:57:31;;;;;;;0.30;0.30;;;14.90;72.80;;;;;;4971898;28;20038;-69
2022/12/12 04:00:00;;;;;;;0.32;0.30;;;14.90;72.80;;;;;;4917614;29;20036;-69
2022/12/12 04:02:30;;;;;;;0.70;0.30;;;14.90;72.80;;;;;;4902370;29;20036;-70
2022/12/12 04:05:11;;;;;;;0.63;0.30;;;14.90;72.80;;;;;;4933654;29;20110;-70
2022/12/12 04:07:40;;;;;;;0.75;0.38;;;14.90;72.90;;;;;;4914280;29;20052;-69
2022/12/12 04:12:59;;;;;;;0.30;0.30;;;14.90;72.80;;;;;;4914735;29;20529;-70
2022/12/12 04:15:33;;;;;;;0.20;0.20;;;14.90;72.80;;;;;;4914462;29;20396;-69
2022/12/12 04:18:33;;;;;;;0.38;0.38;;;14.90;72.80;;;;;;4914227;29;20024;-69
2022/12/12 04:24:10;;;;;;;0.45;0.40;;;14.90;72.80;;;;;;4914503;29;20152;-69
2022/12/12 04:26:41;;;;;;;0.22;0.22;;;14.90;72.80;;;;;;4899202;29;20111;-69
2022/12/12 04:29:16;;;;;;;0.20;0.20;;;14.90;72.80;;;;;;4898680;29;20543;-69
2022/12/12 04:32:05;;;;;;;0.30;0.30;;;14.90;72.80;;;;;;4914211;29;20039;-69
2022/12/12 04:34:42;;;;;;;0.35;0.35;;;14.90;72.80;;;;;;4919883;28;20032;-69
2022/12/12 04:37:10;;;;;;;0.22;0.22;;;14.90;72.80;;;;;;4956836;28;20023;-69
2022/12/12 04:39:36;;;;;;;0.30;0.30;;;14.90;72.80;;;;;;4956909;28;20019;-69
2022/12/12 04:42:02;;;;;;;1.33;0.30;;;14.90;72.80;;;;;;4956471;28;20029;-69
2022/12/12 04:44:28;;;;;;;0.30;0.30;;;14.90;72.80;;;;;;4956664;28;20027;-69
2022/12/12 04:46:54;;;;;;;0.30;0.30;;;14.80;72.70;;;;;;4956535;28;20033;-69
2022/12/12 04:49:23;;;;;;;0.30;0.30;;;14.90;72.80;;;;;;4956690;28;20031;-69
2022/12/12 04:51:50;;;;;;;0.30;0.30;;;14.80;72.80;;;;;;4956584;28;20027;-69
2022/12/12 04:54:52;;;;;;;0.68;0.38;;;14.80;72.70;;;;;;4956434;28;20026;-69
2022/12/12 04:57:22;;;;;;;0.20;0.20;;;14.80;72.70;;;;;;4962375;28;20114;-69
2022/12/12 04:59:47;;;;;;;0.30;0.30;;;14.80;72.70;;;;;;4944208;28;20379;-69
2022/12/12 05:02:23;;;;;;;0.30;0.30;;;14.80;72.70;;;;;;4959799;28;20034;-69
2022/12/12 05:04:56;;;;;;;0.25;0.25;;;14.90;72.80;;;;;;4960858;28;20026;-69
2022/12/12 05:07:32;;;;;;;0.40;0.40;;;14.80;72.70;;;;;;4975473;28;20080;-69
2022/12/12 05:09:57;;;;;;;0.30;0.30;;;14.90;72.90;;;;;;4979146;28;20105;-70
2022/12/12 05:12:23;;;;;;;0.45;0.32;;;14.80;72.70;;;;;;4979257;28;20113;-70
2022/12/12 05:14:49;;;;;;;0.32;0.32;;;14.80;72.70;;;;;;4978694;28;20027;-69
2022/12/12 05:17:16;;;;;;;0.20;0.20;;;14.80;72.70;;;;;;4979175;28;20033;-70
2022/12/12 05:19:41;;;;;;;0.30;0.30;;;14.80;72.70;;;;;;4979237;28;20015;-70
2022/12/12 05:22:07;;;;;;;0.30;0.30;;;14.80;72.70;;;;;;4994916;28;20026;-70
2022/12/12 05:24:33;;;;;;;0.22;0.22;;;14.80;72.80;;;;;;4976998;28;20019;-69
2022/12/12 05:26:58;;;;;;;0.20;0.20;;;14.80;72.80;;;;;;4976856;28;20388;-70
2022/12/12 05:29:24;;;;;;;0.20;0.20;;;14.80;72.80;;;;;;4975607;28;20359;-70
2022/12/12 05:31:50;;;;;;;0.40;0.25;;;14.80;72.80;;;;;;4975742;28;20097;-70
2022/12/12 05:34:15;;;;;;;0.20;0.20;;;14.80;72.80;;;;;;4975312;28;20085;-69
2022/12/12 05:36:41;;;;;;;0.10;0.10;;;14.80;72.80;;;;;;4975659;28;20027;-70
2022/12/12 05:39:07;;;;;;;2.03;0.30;;;14.80;72.90;;;;;;4975624;28;20018;-70
2022/12/12 05:41:32;;;;;;;0.25;0.20;;;14.80;72.90;;;;;;4975413;28;20023;-70
2022/12/12 05:43:58;;;;;;;0.30;0.20;;;14.80;73.00;;;;;;4975208;28;20070;-70
2022/12/12 05:46:24;;;;;;;1.48;0.30;;;14.80;73.10;;;;;;4976515;28;20450;-70
2022/12/12 05:48:49;;;;;;;1.17;0.28;;;14.80;73.00;;;;;;4976640;28;20497;-69
2022/12/12 05:51:18;;;;;;;0.20;0.20;;;14.80;73.00;;;;;;4976303;28;20435;-70
2022/12/12 05:53:44;;;;;;;0.30;0.30;;;14.80;72.80;;;;;;4975335;28;20460;-69
2022/12/12 05:56:11;;;;;;;0.50;0.50;;;14.80;72.70;;;;;;4976014;28;20062;-69
2022/12/12 05:58:37;;;;;;;5.68;0.50;;;14.80;72.70;;;;;;4976004;28;20050;-70
2022/12/12 06:01:04;;;;;;;0.40;0.40;;;14.80;72.80;;;;;;4976242;28;20026;-69
2022/12/12 06:03:29;;;;;;;4.05;0.40;;;14.80;72.90;;;;;;4975006;28;20033;-69
2022/12/12 06:05:55;;;;;;;0.55;0.28;;;14.80;73.00;;;;;;4982001;28;20031;-69
2022/12/12 06:08:21;;;;;;;1.45;0.40;;;14.80;73.10;;;;;;4971374;28;20425;-69
2022/12/12 06:10:46;;;;;;;0.20;0.20;;;14.80;73.00;;;;;;4956184;28;20035;-70
2022/12/12 06:13:12;;;;;;;0.30;0.30;;;14.80;73.00;;;;;;4956091;28;20168;-69
2022/12/12 06:15:39;;;;;;;0.20;0.20;;;14.80;73.00;;;;;;4956111;28;20110;-69
2022/12/12 06:18:05;;;;;;;0.30;0.30;;;14.80;73.00;;;;;;4956047;28;20470;-69
2022/12/12 06:20:31;;;;;;;1.30;0.38;;;14.80;73.20;;;;;;4954863;29;20027;-70
2022/12/12 06:22:57;;;;;;;0.30;0.30;;;14.80;73.20;;;;;;4955759;28;20178;-70
2022/12/12 06:25:23;;;;;;;0.30;0.30;;;14.80;73.20;;;;;;4938836;29;20035;-69
2022/12/12 06:27:49;;;;;;;0.28;0.25;;;14.80;73.20;;;;;;4954628;29;20019;-69
2022/12/12 06:30:14;;;;;;;0.55;0.25;;;14.80;73.30;;;;;;4955792;29;20413;-70
2022/12/12 06:32:40;;;;;;;0.85;0.43;;;14.80;73.30;;;;;;4954685;29;20026;-69
2022/12/12 06:35:06;;;;;;;0.73;0.20;;;14.80;73.40;;;;;;4954437;29;20042;-70
2022/12/12 06:37:32;;;;;;;0.40;0.35;;;14.80;73.40;;;;;;4955904;28;20382;-70
2022/12/12 06:39:57;;;;;;;0.40;0.30;;;14.80;73.30;;;;;;4955768;29;20023;-69
2022/12/12 06:42:23;;;;;;;0.43;0.40;;;14.80;73.30;;;;;;4955299;29;20562;-69
2022/12/12 06:44:49;;;;;;;0.22;0.22;;;14.80;73.30;;;;;;4954417;29;20110;-70
2022/12/12 06:47:14;;;;;;;1.85;0.38;;;14.80;73.20;;;;;;4955530;29;20106;-70
2022/12/12 06:49:40;;;;;;;0.28;0.28;;;14.80;73.20;;;;;;4955563;29;20118;-70
2022/12/12 06:52:06;;;;;;;1.95;0.30;;;14.80;73.30;;;;;;4954151;29;20054;-69
2022/12/12 06:54:31;;;;;;;0.22;0.22;;;14.80;73.30;;;;;;4955305;29;20405;-70
2022/12/12 06:56:57;;;;;;;0.35;0.28;;;14.80;73.30;;;;;;4954949;29;20054;-70
2022/12/12 06:59:22;;;;;;;1.50;0.30;;;14.80;73.30;;;;;;4953974;29;20066;-69
2022/12/12 07:01:48;;;;;;;0.40;0.30;;;14.80;73.30;;;;;;4955344;29;20027;-69
2022/12/12 07:04:14;;;;;;;0.57;0.50;;;14.80;73.20;;;;;;4955120;29;20043;-69
2022/12/12 07:06:40;;;;;;;1.02;0.20;;;14.80;73.20;;;;;;4937675;29;20027;-70
2022/12/12 07:09:06;;;;;;;0.40;0.30;;;14.80;73.20;;;;;;4953879;28;20517;-69
2022/12/12 07:11:31;;;;;;;0.30;0.30;;;14.80;73.20;;;;;;4954791;29;20020;-70
2022/12/12 07:13:58;;;;;;;0.40;0.40;;;14.80;73.10;;;;;;4953183;29;20030;-69
2022/12/12 07:16:24;;;;;;;0.85;0.30;;;14.80;73.00;;;;;;4936586;29;20054;-70
2022/12/12 07:18:49;;;;;;;0.57;0.35;;;14.80;72.90;;;;;;4935690;29;20426;-70
2022/12/12 07:21:17;;;;;;;0.50;0.40;;;14.80;72.80;;;;;;4953408;29;20011;-70
2022/12/12 07:23:42;;;;;;;1.38;0.50;;;14.80;72.70;;;;;;4952814;29;20344;-69
2022/12/12 07:26:11;;;;;;;0.30;0.30;;;14.80;72.80;;;;;;4953521;29;20082;-70
2022/12/12 07:28:37;;;;;;;0.30;0.30;;;14.80;72.70;;;;;;4954793;29;20042;-69
2022/12/12 07:31:07;;;;;;;1.83;0.30;;;14.80;72.70;;;;;;4954747;29;20031;-69
2022/12/12 07:33:33;;;;;;;0.40;0.40;;;14.80;72.60;;;;;;4953298;29;20031;-70
2022/12/12 07:35:58;;;;;;;2.65;0.50;;;14.80;72.50;;;;;;4954328;29;20035;-70
2022/12/12 07:38:25;;;;;;;1.65;0.50;;;14.80;72.50;;;;;;4952977;29;20114;-70
2022/12/12 07:40:50;;;;;;;0.65;0.35;;;14.70;72.40;;;;;;4954040;28;20023;-70
2022/12/12 07:43:16;;;;;;;3.03;0.60;;;14.70;72.40;;;;;;4952344;29;20105;-69
2022/12/12 07:45:45;;;;;;;1.75;0.63;;;14.70;72.30;;;;;;4954361;29;20464;-70
2022/12/12 07:48:11;;;;;;;2.05;0.68;;;14.70;72.30;;;;;;4936949;29;20031;-70
2022/12/12 07:50:37;;;;;;;1.45;0.70;;;14.70;72.30;;;;;;4953447;29;20031;-70
2022/12/12 07:53:03;;;;;;;2.15;0.60;;;14.70;72.20;;;;;;4954446;29;20023;-70
2022/12/12 07:55:29;;;;;;;1.92;0.70;;;14.70;72.20;;;;;;4954126;29;20034;-70
2022/12/12 07:57:54;;;;;;;1.25;0.65;;;14.70;72.20;;;;;;4953223;29;20019;-70
2022/12/12 08:00:20;;;;;;;4.20;0.70;;;14.70;72.20;;;;;;4940596;29;20495;-70
2022/12/12 08:02:47;;;;;;;1.52;0.95;;;14.70;72.10;;;;;;4934616;29;20027;-70
2022/12/12 08:05:12;;;;;;;2.45;0.80;;;14.70;72.10;;;;;;4935201;29;20104;-70
2022/12/12 08:07:38;;;;;;;5.03;1.00;;;14.70;72.10;;;;;;4962972;28;20074;-70
2022/12/12 08:10:04;;;;;;;0.93;0.77;;;14.70;72.10;;;;;;4992836;28;20103;-70
2022/12/12 08:12:30;;;;;;;5.03;1.20;;;14.70;72.00;;;;;;4975725;28;20019;-69
2022/12/12 08:14:56;;;;;;;4.60;0.90;;;14.70;72.00;;;;;;4992960;28;20026;-70
2022/12/12 08:17:22;;;;;;;1.50;0.77;;;14.70;72.00;;;;;;4958420;28;20114;-70
2022/12/12 08:19:48;;;;;;;3.30;0.90;;;14.70;72.00;;;;;;4940614;28;20050;-70
2022/12/12 08:22:14;;;;;;;3.05;1.05;;;14.70;72.00;;;;;;4973298;28;20027;-70
2022/12/12 08:24:40;;;;;;;2.88;1.00;;;14.60;71.90;;;;;;4973167;28;20383;-70
2022/12/12 08:27:05;;;;;;;3.97;1.10;;;14.70;71.90;;;;;;4973342;28;20031;-70
2022/12/12 08:29:31;;;;;;;2.10;1.20;;;14.60;71.80;;;;;;4974002;28;20035;-70
2022/12/12 08:31:57;;;;;;;2.53;1.30;;;14.60;71.70;;;;;;4977344;28;20062;-70
2022/12/12 08:34:22;;;;;;;4.13;1.05;;;14.60;71.70;;;;;;4976406;28;20026;-70
2022/12/12 08:36:48;;;;;;;3.85;1.05;;;14.70;71.80;;;;;;4979362;28;20053;-70
2022/12/12 08:39:17;;;;;;;2.20;1.00;;;14.70;71.80;;;;;;4996627;28;20539;-70
2022/12/12 08:41:49;;;;;;;3.47;1.30;;;14.60;71.60;;;;;;4979785;28;20018;-69
2022/12/12 08:44:16;;;;;;;4.57;1.52;;;14.60;71.70;;;;;;4979978;28;20022;-69
2022/12/12 08:46:41;;;;;;;5.25;1.40;;;14.60;71.60;;;;;;4978936;28;20046;-70
2022/12/12 08:49:07;;;;;;;3.33;1.27;;;14.60;71.70;;;;;;4979244;28;20527;-70
2022/12/12 08:51:34;;;;;;;3.40;1.13;;;14.60;71.60;;;;;;4996257;28;20504;-70
2022/12/12 08:54:00;;;;;;;2.85;1.08;;;14.60;71.50;;;;;;4979065;28;20031;-70
2022/12/12 08:56:25;;;;;;;3.60;0.98;;;14.60;71.60;;;;;;4996236;28;20440;-70
2022/12/12 08:58:51;;;;;;;2.05;1.00;;;14.60;71.50;;;;;;4996234;28;20528;-70
2022/12/12 09:01:22;;;;;;;1.85;1.02;;;14.60;71.50;;;;;;4978813;28;20420;-70
2022/12/12 09:03:47;;;;;;;1.92;0.98;;;14.60;71.50;;;;;;4978960;28;20161;-70
2022/12/12 09:06:13;;;;;;;1.88;1.05;;;14.60;71.50;;;;;;4978442;28;20101;-69
2022/12/12 09:08:39;;;;;;;3.25;1.48;;;14.60;71.50;;;;;;4978278;28;20527;-70
2022/12/12 09:11:05;;;;;;;2.35;1.45;;;14.60;71.40;;;;;;4978732;28;20038;-70
2022/12/12 09:13:31;;;;;;;5.43;1.42;;;14.60;71.40;;;;;;4978618;28;20027;-69
2022/12/12 09:15:56;;;;;;;3.42;1.20;;;14.60;71.30;;;;;;4978626;28;20034;-70
2022/12/12 09:18:22;;;;;;;1.45;1.08;;;14.60;71.30;;;;;;4978565;28;20014;-70
2022/12/12 09:20:55;;;;;;;3.17;1.05;;;14.60;71.30;;;;;;4995593;28;20023;-69
2022/12/12 09:23:21;;;;;;;3.03;1.42;;;14.60;71.30;;;;;;4995813;28;20117;-70
2022/12/12 09:25:47;;;;;;;2.05;1.08;;;14.60;71.20;;;;;;4978644;28;20022;-69
2022/12/12 09:28:14;;;;;;;3.90;1.50;;;14.60;71.30;;;;;;4978272;28;20077;-70
2022/12/12 09:30:39;;;;;;;2.20;1.20;;;14.60;71.20;;;;;;4978313;28;20028;-69
2022/12/12 09:33:05;;;;;;;2.17;1.20;;;14.60;71.20;;;;;;4978415;28;20022;-69
2022/12/12 09:35:31;;;;;;;2.83;1.23;;;14.60;71.20;;;;;;4995328;28;20485;-70
2022/12/12 09:37:56;;;;;;;3.40;1.33;;;14.50;71.10;;;;;;4978393;28;20444;-70
2022/12/12 09:40:52;;;;;;;1.75;1.20;;;14.60;71.20;;;;;;4978269;28;20030;-70
2022/12/12 09:43:19;;;;;;;2.13;1.17;;;14.50;71.10;;;;;;4980678;28;20450;-70
2022/12/12 09:45:45;;;;;;;2.08;1.05;;;14.50;71.10;;;;;;4978139;28;20057;-70
2022/12/12 09:48:15;;;;;;;3.45;1.40;;;14.50;71.10;;;;;;4978000;28;20125;-70
2022/12/12 09:50:43;;;;;;;3.80;1.30;;;14.50;71.00;;;;;;4977725;28;20033;-69
2022/12/12 09:53:11;;;;;;;3.50;1.50;;;14.50;71.00;;;;;;4978502;28;20022;-70
2022/12/12 09:55:40;;;;;;;2.53;1.33;;;14.50;71.00;;;;;;4977637;28;20033;-69
2022/12/12 09:58:15;;;;;;;3.83;1.52;;;14.50;71.00;;;;;;4978408;28;20485;-70
2022/12/12 10:00:44;;;;;;;1.25;0.98;;;14.50;70.90;;;;;;4995021;28;20026;-70
2022/12/12 10:03:40;;;;;;;2.53;1.40;;;14.50;70.90;;;;;;4977796;28;20563;-70
2022/12/12 10:06:07;;;;;;;1.73;1.17;;;14.50;70.90;;;;;;4977559;28;20500;-69
2022/12/12 10:08:45;;;;;;;1.27;1.17;;;14.50;70.90;;;;;;4977586;28;20543;-70
2022/12/12 10:11:57;;;;;;;1.80;1.20;;;14.50;70.90;;;;;;4995024;28;20484;-70
2022/12/12 10:14:00;;;;;;;3.05;1.30;;;14.50;71.90;;;;;;4970310;28;20042;-70
2022/12/12 10:16:25;;;;;;;3.15;1.33;;;14.50;70.80;;;;;;4977732;28;20022;-70
2022/12/12 10:18:52;;;;;;;3.03;1.60;;;14.50;70.80;;;;;;4977251;28;20473;-70
2022/12/12 10:21:28;;;;;;;2.42;1.35;;;14.50;70.80;;;;;;4977612;28;20019;-70
2022/12/12 10:24:15;;;;;;;3.72;1.23;;;14.50;70.80;;;;;;4977634;28;20062;-69
2022/12/12 10:26:44;;;;;;;1.65;1.13;;;14.50;70.80;;;;;;4978961;28;20029;-70
2022/12/12 10:29:18;;;;;;;1.98;1.33;;;14.50;70.70;;;;;;4977841;28;20493;-70
2022/12/12 10:32:02;;;;;;;2.80;1.30;;;14.50;70.70;;;;;;4977196;28;20022;-70
2022/12/12 10:34:46;;;;;;;2.20;1.38;;;14.50;70.70;;;;;;4994329;28;20026;-70
2022/12/12 10:37:11;;;;;;;1.65;1.27;;;14.50;70.70;;;;;;4994491;28;20026;-70
2022/12/12 10:39:58;;;;;;;2.15;1.30;;;14.50;70.70;;;;;;4994377;28;20037;-70
2022/12/12 10:42:56;;;;;;;2.33;1.38;;;14.50;70.70;;;;;;4994437;28;20023;-70
2022/12/12 10:45:37;;;;;;;2.67;1.45;;;14.50;70.70;;;;;;4976974;28;20038;-70
2022/12/12 10:48:03;;;;;;;1.83;1.25;;;14.50;70.60;;;;;;4994162;28;20026;-70
2022/12/12 10:50:47;;;;;;;2.05;1.30;;;14.50;70.60;;;;;;4976921;28;20032;-70
2022/12/12 10:53:13;;;;;;;2.50;1.50;;;14.50;70.50;;;;;;4975942;28;20018;-70
2022/12/12 10:56:17;;;;;;;3.92;1.60;;;14.50;71.60;;;;;;4993881;28;20392;-70
2022/12/12 10:58:43;;;;;;;3.83;1.33;;;14.40;70.40;;;;;;4993287;28;20053;-70
2022/12/12 11:01:20;;;;;;;1.30;1.20;;;14.40;70.50;;;;;;4976526;28;20489;-70
2022/12/12 11:03:52;;;;;;;1.15;1.00;;;14.40;70.50;;;;;;4976483;28;20018;-70
2022/12/12 11:06:19;;;;;;;;;;;14.40;70.40;;;;;;4976969;28;20541;-70
2022/12/12 11:09:06;;;;;;;1.98;1.27;;;14.40;70.40;;;;;;4976222;28;20443;-70
2022/12/12 11:11:32;;;;;;;1.80;1.35;;;14.40;70.40;;;;;;4976385;28;20484;-70
2022/12/12 11:14:02;;;;;;;2.15;1.33;;;14.50;70.40;;;;;;4993934;28;20038;-70
2022/12/12 11:16:29;;;;;;;1.92;1.17;;;14.40;70.40;;;;;;4976605;28;20033;-70
2022/12/12 11:19:05;;;;;;;1.95;1.20;;;14.40;70.30;;;;;;4976150;28;20034;-70
2022/12/12 11:21:33;;;;;;;1.33;1.15;;;14.40;70.30;;;;;;4976382;28;20057;-70
2022/12/12 11:23:59;;;;;;;2.35;1.23;;;14.40;70.30;;;;;;4976249;28;20057;-70
2022/12/12 11:26:25;;;;;;;3.03;1.42;;;14.40;70.30;;;;;;4976193;28;20050;-70
2022/12/12 11:29:01;;;;;;;1.50;1.30;;;14.40;70.30;;;;;;4976130;28;20476;-70
2022/12/12 11:31:30;;;;;;;1.85;1.20;;;14.40;70.30;;;;;;4977233;28;20034;-70
2022/12/12 11:34:05;;;;;;;1.30;1.20;;;14.40;70.30;;;;;;4976139;28;20114;-70
2022/12/12 11:36:35;;;;;;;1.25;1.15;;;14.40;70.30;;;;;;4975952;28;20033;-70
2022/12/12 11:39:03;;;;;;;2.40;1.05;;;14.40;70.30;;;;;;4976033;28;20388;-69
2022/12/12 11:41:28;;;;;;;1.90;1.15;;;14.40;70.30;;;;;;4959746;28;20026;-70
2022/12/12 11:43:58;;;;;;;1.85;1.13;;;14.40;70.20;;;;;;4975874;28;20023;-70
2022/12/12 11:46:25;;;;;;;1.45;1.10;;;14.40;70.20;;;;;;4993174;28;20045;-70
2022/12/12 11:48:50;;;;;;;1.83;1.05;;;14.40;70.20;;;;;;4993077;28;20054;-70
2022/12/12 11:51:38;;;;;;;2.67;1.08;;;14.40;70.20;;;;;;4993349;28;20054;-70
2022/12/12 11:54:11;;;;;;;1.40;1.13;;;14.40;70.20;;;;;;4976002;28;20061;-70
2022/12/12 11:56:39;;;;;;;1.67;1.10;;;14.40;70.20;;;;;;4992800;28;20110;-70
2022/12/12 11:59:08;;;;;;;1.60;1.15;;;14.40;70.10;;;;;;4975966;28;20022;-70
2022/12/12 12:01:43;;;;;;;1.20;0.93;;;14.40;70.10;;;;;;4973293;28;20023;-70
2022/12/12 12:04:15;;;;;;;1.27;1.10;;;14.40;70.10;;;;;;4972243;28;20106;-70
2022/12/12 12:06:45;;;;;;;1.27;0.90;;;14.40;70.10;;;;;;4975592;28;20019;-70
2022/12/12 12:09:15;;;;;;;1.63;1.10;;;14.40;70.10;;;;;;4975558;28;20129;-70
2022/12/12 12:12:02;;;;;;;0.90;0.90;;;14.40;70.00;;;;;;4975826;28;20065;-70
2022/12/12 12:14:40;;;;;;;1.05;0.90;;;14.40;70.00;;;;;;4993068;28;20032;-70
2022/12/12 12:17:30;;;;;;;2.10;1.15;;;14.40;70.00;;;;;;4975686;28;20032;-70
2022/12/12 12:20:17;;;;;;;1.58;1.20;;;14.40;70.00;;;;;;4977348;28;20022;-70
2022/12/12 12:22:48;;;;;;;0.85;0.85;;;14.40;70.00;;;;;;4992755;28;20058;-70
2022/12/12 12:25:29;;;;;;;1.17;1.02;;;14.40;70.00;;;;;;4992858;28;20027;-70
2022/12/12 12:28:04;;;;;;;1.88;1.23;;;14.40;70.00;;;;;;4975632;28;20027;-70
2022/12/12 12:30:38;;;;;;;1.40;1.27;;;14.40;69.90;;;;;;4975500;28;20022;-70
2022/12/12 12:33:06;;;;;;;0.90;0.90;;;14.40;69.90;;;;;;4960206;28;20034;-70
2022/12/12 12:35:53;;;;;;;1.55;1.10;;;14.40;69.90;;;;;;4992677;28;20030;-70
2022/12/12 12:38:24;;;;;;;1.42;1.05;;;14.40;69.90;;;;;;4978108;28;20049;-70
2022/12/12 12:40:56;;;;;;;1.00;1.00;;;14.40;69.90;;;;;;4975327;28;20018;-70
2022/12/12 12:43:31;;;;;;;1.35;0.88;;;14.40;69.90;;;;;;4992747;28;20069;-70
2022/12/12 12:46:10;;;;;;;1.20;1.10;;;14.40;69.90;;;;;;4975043;28;20022;-69
2022/12/12 12:48:38;;;;;;;2.10;0.95;;;14.40;69.90;;;;;;4975287;28;20110;-70
2022/12/12 12:51:24;;;;;;;1.15;0.85;;;14.40;69.90;;;;;;4959556;28;20081;-70
2022/12/12 12:53:52;;;;;;;2.85;1.10;;;14.40;69.90;;;;;;4975221;28;20493;-70
2022/12/12 12:56:32;;;;;;;1.73;0.93;;;14.40;69.80;;;;;;4974903;28;20421;-70
2022/12/12 12:59:03;;;;;;;1.35;1.00;;;14.40;69.80;;;;;;4975210;28;20027;-70
2022/12/12 13:01:43;;;;;;;0.85;0.80;;;14.40;69.80;;;;;;4959584;28;20023;-69
2022/12/12 13:04:09;;;;;;;0.90;0.90;;;14.40;69.80;;;;;;4975320;28;20018;-70
2022/12/12 13:07:01;;;;;;;1.60;0.80;;;14.40;69.80;;;;;;4992557;28;20050;-70
2022/12/12 13:09:41;;;;;;;0.97;0.77;;;14.50;69.80;;;;;;4976118;28;20042;-70
2022/12/12 13:12:29;;;;;;;1.25;0.93;;;14.40;69.80;;;;;;4976086;28;20118;-70
2022/12/12 13:15:01;;;;;;;1.30;0.93;;;14.40;69.70;;;;;;4974713;28;20066;-70
2022/12/12 13:17:46;;;;;;;1.08;1.00;;;14.40;69.80;;;;;;4977310;28;20109;-70